Time;durP1;ratioP1;P1;durP2;ratioP2;P2;SDS_P1;SDS_P2;PMS_P1;PMS_P2;Temp;Humidity;BMP_temperature;BMP_pressure;BME280_temperature;BME280_humidity;BME280_pressure;Samples;Min_cycle;Max_cycle;Signal;HPM_P1;HPM_P2
2022/07/16 00:01:25;;;;;;;;;13.67;13.67;30.90;28.30;;;;;;5074513;28;8889;-76
2022/07/16 00:03:56;;;;;;;;;12.67;12.67;30.90;28.30;;;;;;5085464;28;8845;-75
2022/07/16 00:06:23;;;;;;;;;12.00;12.00;30.90;28.30;;;;;;5094740;28;11441;-76
2022/07/16 00:08:50;;;;;;;;;13.00;12.33;30.90;28.40;;;;;;5094803;28;11514;-75
2022/07/16 00:11:15;;;;;;;;;15.67;15.67;30.90;28.30;;;;;;5094517;28;11533;-76
2022/07/16 00:13:42;;;;;;;;;15.33;15.33;30.90;28.40;;;;;;5094586;28;11541;-75
2022/07/16 00:16:08;;;;;;;;;14.33;14.33;30.90;28.40;;;;;;5094626;28;8829;-76
2022/07/16 00:21:20;;;;;;;;;13.33;13.33;30.80;28.40;;;;;;5094386;28;11460;-75
2022/07/16 00:23:46;;;;;;;;;15.00;14.00;30.80;28.40;;;;;;5094518;28;11503;-76
2022/07/16 00:26:12;;;;;;;;;13.33;13.00;30.70;28.40;;;;;;5094733;28;8857;-75
2022/07/16 00:28:38;;;;;;;;;13.33;13.33;30.60;28.60;;;;;;5094421;28;8767;-76
2022/07/16 00:31:04;;;;;;;;;15.33;13.67;30.60;28.60;;;;;;5094649;28;11453;-76
2022/07/16 00:33:30;;;;;;;;;14.67;14.67;30.60;28.70;;;;;;5094400;28;8752;-78
2022/07/16 00:35:55;;;;;;;;;13.00;13.00;30.60;28.70;;;;;;5094671;28;8764;-76
2022/07/16 00:38:21;;;;;;;;;13.33;13.33;30.60;28.70;;;;;;5094608;28;8762;-76
2022/07/16 00:40:47;;;;;;;;;12.67;12.33;30.60;28.70;;;;;;5094406;28;8816;-76
2022/07/16 00:43:14;;;;;;;;;11.00;11.00;30.50;28.70;;;;;;5094616;28;8877;-77
2022/07/16 00:45:40;;;;;;;;;14.00;14.00;30.50;28.80;;;;;;5094585;28;8820;-77
2022/07/16 00:48:07;;;;;;;;;12.33;11.33;30.50;28.80;;;;;;5094445;28;8783;-77
2022/07/16 00:50:36;;;;;;;;;16.33;15.33;30.50;28.80;;;;;;5093989;28;11511;-76
2022/07/16 00:53:03;;;;;;;;;12.67;12.67;30.50;28.70;;;;;;5092789;28;8768;-78
2022/07/16 00:55:29;;;;;;;;;14.33;12.33;30.50;28.80;;;;;;5094354;28;11407;-77
2022/07/16 00:57:56;;;;;;;;;13.33;13.33;30.50;28.70;;;;;;5094108;28;11455;-76
2022/07/16 01:00:22;;;;;;;;;13.33;13.33;30.50;28.80;;;;;;5091036;28;8928;-77
2022/07/16 01:02:48;;;;;;;;;13.00;13.00;30.50;28.90;;;;;;5086728;28;11606;-78
2022/07/16 01:05:14;;;;;;;;;14.00;14.00;30.50;28.90;;;;;;5077902;28;8777;-78
2022/07/16 01:07:40;;;;;;;;;13.67;13.67;30.40;28.80;;;;;;5077800;28;11421;-76
2022/07/16 01:10:06;;;;;;;;;14.67;14.00;30.40;28.90;;;;;;5077734;28;8928;-77
2022/07/16 01:12:32;;;;;;;;;15.00;15.00;30.40;29.10;;;;;;5077598;28;11484;-76
2022/07/16 01:14:58;;;;;;;;;11.67;11.67;30.40;29.10;;;;;;5077557;28;11444;-77
2022/07/16 01:17:24;;;;;;;;;15.00;13.00;30.40;29.10;;;;;;5077378;28;11476;-75
2022/07/16 01:19:50;;;;;;;;;13.67;12.67;30.30;29.10;;;;;;5059733;28;8826;-76
2022/07/16 01:22:24;;;;;;;;;14.00;14.00;30.30;29.20;;;;;;5077473;28;8782;-75
2022/07/16 01:24:51;;;;;;;;;9.67;9.67;30.30;29.30;;;;;;5077489;28;8773;-75
2022/07/16 01:27:19;;;;;;;;;12.67;12.67;30.20;29.30;;;;;;5077257;28;11418;-78
2022/07/16 01:29:45;;;;;;;;;16.00;15.33;30.20;29.30;;;;;;5077540;28;8794;-77
2022/07/16 01:32:10;;;;;;;;;15.33;15.33;30.20;29.30;;;;;;5077564;28;8830;-77
2022/07/16 01:34:37;;;;;;;;;17.33;17.33;30.20;29.40;;;;;;5077467;28;8797;-76
2022/07/16 01:37:06;;;;;;;;;16.67;15.67;30.20;29.40;;;;;;5077234;28;8916;-76
2022/07/16 01:39:33;;;;;;;;;14.00;14.00;30.10;29.50;;;;;;5059398;28;8793;-78
2022/07/16 01:42:02;;;;;;;;;13.00;13.00;30.10;29.60;;;;;;5077449;28;8777;-79
2022/07/16 01:44:30;;;;;;;;;16.33;14.33;30.10;29.70;;;;;;5077325;28;8839;-76
2022/07/16 01:46:57;;;;;;;;;15.33;15.33;30.10;29.70;;;;;;5077247;28;8888;-76
2022/07/16 01:49:24;;;;;;;;;16.67;16.00;30.00;29.70;;;;;;5077377;28;8821;-78
2022/07/16 01:51:50;;;;;;;;;19.00;18.33;30.00;29.90;;;;;;5077293;28;8770;-78
2022/07/16 01:54:16;;;;;;;;;16.67;16.33;29.90;30.00;;;;;;5076943;28;8770;-75
2022/07/16 01:56:42;;;;;;;;;15.33;15.33;29.90;30.10;;;;;;5076831;28;8786;-75
2022/07/16 01:59:09;;;;;;;;;14.67;14.67;29.80;30.10;;;;;;5077072;28;8766;-76
2022/07/16 02:01:35;;;;;;;;;18.00;18.00;29.90;30.40;;;;;;5076860;28;8734;-76
2022/07/16 02:04:01;;;;;;;;;14.00;14.00;29.80;30.20;;;;;;5076826;28;8761;-76
2022/07/16 02:06:26;;;;;;;;;14.33;13.67;29.80;30.20;;;;;;5076997;28;8873;-76
2022/07/16 02:08:53;;;;;;;;;18.33;18.00;29.80;30.40;;;;;;5076647;28;8762;-77
2022/07/16 02:11:19;;;;;;;;;17.00;16.33;29.80;30.40;;;;;;5076003;28;8754;-77
2022/07/16 02:13:44;;;;;;;;;15.67;15.67;29.80;30.50;;;;;;5076585;28;8781;-76
2022/07/16 02:16:10;;;;;;;;;16.67;16.67;29.80;30.70;;;;;;5076641;28;8762;-75
2022/07/16 02:18:37;;;;;;;;;17.33;15.00;29.80;30.80;;;;;;5076708;28;8877;-77
2022/07/16 02:21:04;;;;;;;;;17.67;16.67;29.80;30.70;;;;;;5076337;28;9731;-78
2022/07/16 02:23:30;;;;;;;;;17.00;16.67;29.80;30.80;;;;;;5076411;28;8776;-76
2022/07/16 02:25:56;;;;;;;;;19.00;17.00;29.70;30.80;;;;;;5076538;28;8769;-78
2022/07/16 02:28:22;;;;;;;;;18.00;17.67;29.70;30.90;;;;;;5076489;28;9518;-75
2022/07/16 02:30:49;;;;;;;;;17.67;16.67;29.70;30.90;;;;;;5076373;28;9464;-76
2022/07/16 02:33:17;;;;;;;;;15.33;15.33;29.70;30.90;;;;;;5076021;28;9415;-78
2022/07/16 02:35:44;;;;;;;;;18.67;17.33;29.60;30.90;;;;;;5076119;28;8794;-75
2022/07/16 02:38:11;;;;;;;;;19.67;17.33;29.60;31.00;;;;;;5076006;28;8785;-76
2022/07/16 02:40:40;;;;;;;;;19.33;18.00;29.60;31.10;;;;;;5076230;28;8863;-76
2022/07/16 02:43:09;;;;;;;;;20.00;17.00;29.50;31.20;;;;;;5075841;28;8783;-78
2022/07/16 02:45:37;;;;;;;;;16.00;16.00;29.50;31.30;;;;;;5076136;28;8761;-78
2022/07/16 02:48:03;;;;;;;;;16.33;16.33;29.50;31.50;;;;;;5076012;28;9562;-76
2022/07/16 02:50:29;;;;;;;;;21.00;18.00;29.50;31.60;;;;;;5075763;28;8904;-76
2022/07/16 02:52:56;;;;;;;;;18.33;18.33;29.40;31.60;;;;;;5075821;28;8776;-75
2022/07/16 02:55:21;;;;;;;;;18.00;18.00;29.40;31.70;;;;;;5075920;28;8746;-75
2022/07/16 02:57:47;;;;;;;;;18.00;18.00;29.40;31.80;;;;;;5075688;28;8777;-75
2022/07/16 03:00:15;;;;;;;;;21.00;20.33;29.30;31.90;;;;;;5075544;28;8858;-76
2022/07/16 03:02:41;;;;;;;;;19.67;18.67;29.30;32.00;;;;;;5075529;28;8858;-77
2022/07/16 03:05:08;;;;;;;;;21.00;19.00;29.20;32.10;;;;;;5075708;28;8837;-77
2022/07/16 03:07:34;;;;;;;;;22.33;20.67;29.20;32.10;;;;;;5075484;28;8735;-77
2022/07/16 03:10:00;;;;;;;;;21.67;20.67;29.20;32.20;;;;;;5075474;28;8852;-76
2022/07/16 03:12:25;;;;;;;;;25.00;23.67;29.20;32.30;;;;;;5075441;28;9352;-78
2022/07/16 03:14:51;;;;;;;;;21.00;19.00;29.10;32.20;;;;;;5075567;28;8796;-77
2022/07/16 03:17:17;;;;;;;;;21.00;20.00;29.20;32.40;;;;;;5075467;28;9510;-77
2022/07/16 03:19:43;;;;;;;;;21.33;21.00;29.10;32.40;;;;;;5075026;28;8848;-77
2022/07/16 03:22:09;;;;;;;;;19.00;18.33;29.10;32.40;;;;;;5074286;28;8770;-75
2022/07/16 03:24:35;;;;;;;;;21.00;19.33;29.00;32.40;;;;;;5074759;28;8758;-76
2022/07/16 03:27:01;;;;;;;;;18.00;17.33;29.00;32.60;;;;;;5087194;28;8886;-77
2022/07/16 03:29:27;;;;;;;;;19.00;19.00;29.00;32.90;;;;;;5084546;28;8914;-78
2022/07/16 03:31:53;;;;;;;;;18.00;18.00;29.00;33.10;;;;;;5095691;28;8775;-77
2022/07/16 03:34:19;;;;;;;;;18.33;18.33;29.00;33.40;;;;;;5095284;28;8756;-76
2022/07/16 03:36:45;;;;;;;;;15.33;15.33;28.90;33.70;;;;;;5095346;28;8870;-77
2022/07/16 03:39:11;;;;;;;;;20.67;20.67;28.90;33.80;;;;;;5095375;28;8771;-77
2022/07/16 03:41:38;;;;;;;;;20.67;20.67;28.80;33.70;;;;;;5095215;28;8775;-77
2022/07/16 03:44:07;;;;;;;;;20.33;20.33;28.80;33.50;;;;;;5095359;28;8756;-76
2022/07/16 03:46:35;;;;;;;;;20.00;20.00;28.80;33.60;;;;;;5095085;28;8780;-76
2022/07/16 03:49:02;;;;;;;;;15.00;15.00;28.80;33.70;;;;;;5095218;28;8934;-76
2022/07/16 03:51:28;;;;;;;;;15.67;15.67;28.80;33.70;;;;;;5094994;28;8837;-76
2022/07/16 03:53:54;;;;;;;;;16.67;15.67;28.70;34.00;;;;;;5094918;28;8763;-77
2022/07/16 03:56:20;;;;;;;;;17.00;17.00;28.70;33.90;;;;;;5094882;28;8776;-77
2022/07/16 03:58:46;;;;;;;;;19.00;18.33;28.60;33.80;;;;;;5094892;28;8756;-77
2022/07/16 04:01:11;;;;;;;;;20.33;20.33;28.60;33.90;;;;;;5094717;28;8874;-76
2022/07/16 04:03:38;;;;;;;;;15.67;15.67;28.70;34.00;;;;;;5094857;28;8849;-77
2022/07/16 04:06:05;;;;;;;;;20.33;19.00;28.60;33.80;;;;;;5094833;28;8772;-78
2022/07/16 04:08:31;;;;;;;;;20.33;16.33;28.60;33.80;;;;;;5094928;28;9520;-77
2022/07/16 04:10:57;;;;;;;;;14.00;14.00;28.60;34.00;;;;;;5094553;28;8898;-76
2022/07/16 04:13:23;;;;;;;;;16.67;15.33;28.60;34.20;;;;;;5094864;28;8817;-77
2022/07/16 04:15:49;;;;;;;;;17.67;16.00;28.60;34.30;;;;;;5076700;28;8767;-76
2022/07/16 04:18:15;;;;;;;;;19.67;16.67;28.60;34.40;;;;;;5094915;28;8799;-76
2022/07/16 04:20:41;;;;;;;;;18.33;18.33;28.60;34.30;;;;;;5094389;28;8788;-77
2022/07/16 04:23:07;;;;;;;;;17.00;17.00;28.60;34.40;;;;;;5094482;28;8764;-76
2022/07/16 04:25:33;;;;;;;;;17.33;17.33;28.50;34.50;;;;;;5094650;28;8787;-77
2022/07/16 04:27:59;;;;;;;;;20.00;20.00;28.60;34.50;;;;;;5094487;28;8767;-76
2022/07/16 04:30:24;;;;;;;;;19.00;18.33;28.50;34.40;;;;;;5094362;28;8791;-76
2022/07/16 04:32:50;;;;;;;;;18.33;18.33;28.60;34.60;;;;;;5094497;28;9452;-78
2022/07/16 04:35:17;;;;;;;;;14.00;14.00;28.50;34.80;;;;;;5101333;28;8778;-76
2022/07/16 04:37:44;;;;;;;;;21.67;20.67;28.50;34.70;;;;;;5101347;28;8771;-76
2022/07/16 04:40:11;;;;;;;;;19.67;19.33;28.50;34.80;;;;;;5101311;28;9503;-76
2022/07/16 04:42:39;;;;;;;;;20.00;20.00;28.50;34.90;;;;;;5099949;28;8867;-77
2022/07/16 04:45:06;;;;;;;;;19.33;19.00;28.40;34.70;;;;;;5086065;28;8765;-77
2022/07/16 04:47:32;;;;;;;;;22.67;20.00;28.40;34.70;;;;;;5093700;28;9502;-76
2022/07/16 04:49:58;;;;;;;;;19.67;19.67;28.50;34.30;;;;;;5080817;28;8886;-76
2022/07/16 04:52:24;;;;;;;;;21.67;20.33;28.50;34.00;;;;;;5080716;28;8763;-76
2022/07/16 04:54:50;;;;;;;;;21.67;20.67;28.50;35.00;;;;;;5080920;28;8778;-76
2022/07/16 04:57:15;;;;;;;;;19.00;19.00;28.50;34.00;;;;;;5080843;28;8773;-77
2022/07/16 04:59:41;;;;;;;;;20.33;20.33;28.60;34.00;;;;;;5080602;28;8859;-75
2022/07/16 05:04:51;;;;;;;;;25.33;22.00;28.60;33.70;;;;;;5080770;28;8746;-78
2022/07/16 05:07:17;;;;;;;;;21.67;21.67;28.60;33.30;;;;;;5080522;28;8898;-76
2022/07/16 05:09:43;;;;;;;;;23.00;21.00;28.60;33.20;;;;;;5080523;28;8898;-75
2022/07/16 05:12:09;;;;;;;;;16.00;15.33;28.60;33.20;;;;;;5080580;28;8762;-77
2022/07/16 05:14:35;;;;;;;;;19.00;19.00;28.60;33.20;;;;;;5080450;28;8762;-76
2022/07/16 05:17:00;;;;;;;;;21.33;19.33;28.60;33.30;;;;;;5080546;28;8746;-76
2022/07/16 05:19:26;;;;;;;;;18.00;18.00;28.60;33.20;;;;;;5080572;28;8813;-77
2022/07/16 05:21:52;;;;;;;;;18.33;18.00;28.60;33.10;;;;;;5080851;28;8797;-77
2022/07/16 05:24:18;;;;;;;;;20.00;18.00;28.60;33.10;;;;;;5080623;28;8874;-76
2022/07/16 05:26:44;;;;;;;;;19.33;18.00;28.60;33.10;;;;;;5080697;28;8746;-77
2022/07/16 05:29:09;;;;;;;;;15.00;15.00;28.60;33.00;;;;;;5080424;28;8834;-76
2022/07/16 05:31:35;;;;;;;;;17.00;17.00;28.60;32.90;;;;;;5080376;28;8796;-76
2022/07/16 05:34:01;;;;;;;;;16.33;15.33;28.60;32.90;;;;;;5080471;28;8746;-76
2022/07/16 05:36:27;;;;;;;;;14.67;14.00;28.60;33.00;;;;;;5080156;28;8773;-75
2022/07/16 05:38:52;;;;;;;;;17.00;17.00;28.50;32.90;;;;;;5080216;28;8793;-77
2022/07/16 05:41:18;;;;;;;;;17.33;17.33;28.60;33.00;;;;;;5080491;28;8754;-78
2022/07/16 05:43:44;;;;;;;;;19.33;18.67;28.50;32.70;;;;;;5080267;28;8799;-76
2022/07/16 05:46:10;;;;;;;;;15.67;15.67;28.50;32.60;;;;;;5076783;28;8762;-76
2022/07/16 05:48:36;;;;;;;;;17.00;15.00;28.60;32.70;;;;;;5077197;28;8798;-76
2022/07/16 05:51:01;;;;;;;;;11.67;11.67;28.60;32.70;;;;;;5077319;28;8912;-76
2022/07/16 05:53:27;;;;;;;;;16.33;14.33;28.60;32.70;;;;;;5076928;28;8762;-77
2022/07/16 05:55:53;;;;;;;;;10.33;10.33;28.60;32.70;;;;;;5076968;28;8766;-75
2022/07/16 05:58:18;;;;;;;;;17.33;15.00;28.60;32.70;;;;;;5077084;28;8797;-75
2022/07/16 06:00:44;;;;;;;;;15.00;14.00;28.60;32.70;;;;;;5076864;28;8781;-76
2022/07/16 06:03:10;;;;;;;;;11.00;11.00;28.60;32.60;;;;;;5076656;28;8769;-76
2022/07/16 06:05:36;;;;;;;;;12.33;12.33;28.60;32.70;;;;;;5076647;28;8785;-76
2022/07/16 06:08:02;;;;;;;;;13.67;13.67;28.70;32.70;;;;;;5076621;28;8769;-76
2022/07/16 06:10:28;;;;;;;;;13.67;12.67;28.70;32.60;;;;;;5076823;28;8962;-77
2022/07/16 06:12:54;;;;;;;;;12.00;12.00;28.70;32.50;;;;;;5076788;28;11681;-77
2022/07/16 06:15:20;;;;;;;;;12.00;10.67;28.80;32.70;;;;;;5076524;28;11457;-77
2022/07/16 06:17:46;;;;;;;;;11.00;11.00;28.80;32.50;;;;;;5076527;28;8845;-77
2022/07/16 06:20:12;;;;;;;;;13.67;13.67;28.80;32.60;;;;;;5076380;28;8829;-78
2022/07/16 06:22:38;;;;;;;;;14.33;13.33;28.80;32.50;;;;;;5076447;28;8773;-77
2022/07/16 06:25:04;;;;;;;;;13.33;12.33;28.90;32.60;;;;;;5075830;28;11452;-79
2022/07/16 06:27:31;;;;;;;;;15.00;13.33;28.90;32.70;;;;;;5076373;28;11551;-76
2022/07/16 06:30:00;;;;;;;;;15.67;15.00;28.90;32.70;;;;;;5076015;28;11474;-76
2022/07/16 06:32:26;;;;;;;;;13.33;12.33;28.90;32.70;;;;;;5076157;28;11424;-75
2022/07/16 06:34:52;;;;;;;;;15.00;15.00;28.90;32.80;;;;;;5076144;28;11463;-75
2022/07/16 06:37:18;;;;;;;;;14.33;14.33;28.90;33.00;;;;;;5082318;28;8814;-75
2022/07/16 06:39:44;;;;;;;;;14.33;14.33;28.90;33.30;;;;;;5081065;28;8776;-76
2022/07/16 06:42:09;;;;;;;;;11.67;11.67;28.90;33.30;;;;;;5087216;28;8954;-78
2022/07/16 06:44:35;;;;;;;;;12.00;11.00;28.90;33.40;;;;;;5075990;28;8880;-76
2022/07/16 06:47:01;;;;;;;;;12.33;12.33;28.80;33.60;;;;;;5076253;28;8758;-77
2022/07/16 06:49:27;;;;;;;;;21.00;18.00;28.80;33.80;;;;;;5075601;28;8837;-77
2022/07/16 06:51:52;;;;;;;;;16.67;16.67;28.80;34.10;;;;;;5075962;28;8766;-78
2022/07/16 06:54:18;;;;;;;;;27.67;25.33;28.70;34.10;;;;;;5075794;28;8774;-75
2022/07/16 06:56:44;;;;;;;;;20.00;20.00;28.70;34.30;;;;;;5057985;28;8762;-76
2022/07/16 06:59:10;;;;;;;;;12.67;12.67;28.70;34.60;;;;;;5075726;28;8857;-75
2022/07/16 07:01:35;;;;;;;;;15.00;15.00;28.70;34.70;;;;;;5075609;28;8773;-78
2022/07/16 07:04:01;;;;;;;;;16.00;14.00;28.60;34.90;;;;;;5075719;28;8746;-78
2022/07/16 07:06:27;;;;;;;;;14.33;12.67;28.60;35.00;;;;;;5075531;28;8789;-71
2022/07/16 07:08:53;;;;;;;;;16.00;15.00;28.60;35.20;;;;;;5075421;28;8813;-72
2022/07/16 07:11:18;;;;;;;;;17.00;15.00;28.70;35.50;;;;;;5075387;28;8782;-72
2022/07/16 07:13:44;;;;;;;;;14.00;14.00;28.70;35.30;;;;;;5075243;28;8766;-72
2022/07/16 07:16:10;;;;;;;;;14.33;14.33;28.70;35.80;;;;;;5093795;28;8772;-71
2022/07/16 07:18:36;;;;;;;;;12.33;12.33;28.70;35.90;;;;;;5095688;28;8800;-73
2022/07/16 07:21:02;;;;;;;;;16.67;16.67;28.70;36.20;;;;;;5095405;28;11543;-73
2022/07/16 07:23:28;;;;;;;;;13.00;13.00;28.70;36.40;;;;;;5095590;28;9445;-75
2022/07/16 07:25:55;;;;;;;;;15.00;15.00;28.70;36.60;;;;;;5095559;28;11420;-76
2022/07/16 07:28:21;;;;;;;;;15.67;15.67;28.60;36.80;;;;;;5093059;28;9323;-75
2022/07/16 07:30:47;;;;;;;;;14.33;14.33;28.70;36.70;;;;;;5085236;28;11466;-73
2022/07/16 07:33:14;;;;;;;;;15.33;15.33;28.70;37.10;;;;;;5091735;28;8784;-73
2022/07/16 07:35:40;;;;;;;;;15.00;13.67;28.70;36.70;;;;;;5095210;28;8764;-72
2022/07/16 07:38:06;;;;;;;;;19.00;17.33;28.80;36.80;;;;;;5095145;28;8744;-72
2022/07/16 07:40:31;;;;;;;;;16.00;16.00;28.80;36.80;;;;;;5095053;28;11462;-74
2022/07/16 07:42:59;;;;;;;;;13.33;13.33;28.90;36.70;;;;;;5095280;28;8752;-72
2022/07/16 07:45:26;;;;;;;;;17.00;16.33;28.90;36.70;;;;;;5094501;28;8748;-73
2022/07/16 07:47:52;;;;;;;;;22.33;19.67;28.90;36.80;;;;;;5095040;28;8811;-71
2022/07/16 07:50:18;;;;;;;;;20.67;20.00;29.00;36.90;;;;;;5090055;28;11485;-71
2022/07/16 07:52:44;;;;;;;;;20.00;19.00;29.20;36.90;;;;;;5086217;28;11629;-72
2022/07/16 07:55:10;;;;;;;;;18.00;17.33;29.20;36.50;;;;;;5084421;28;8802;-73
2022/07/16 07:57:35;;;;;;;;;18.00;17.00;29.40;36.60;;;;;;5077620;28;8783;-77
2022/07/16 08:00:01;;;;;;;;;15.33;15.33;29.50;36.40;;;;;;5077499;28;8800;-74
2022/07/16 08:02:27;;;;;;;;;12.33;12.33;29.60;36.50;;;;;;5074588;28;8746;-77
2022/07/16 08:04:53;;;;;;;;;14.67;14.67;29.70;36.50;;;;;;5074758;28;8782;-76
2022/07/16 08:07:19;;;;;;;;;13.67;13.67;29.80;36.20;;;;;;5074842;28;8861;-78
2022/07/16 08:09:44;;;;;;;;;15.33;14.00;29.80;36.10;;;;;;5083141;28;9507;-77
2022/07/16 08:12:10;;;;;;;;;9.75;9.75;29.90;36.20;;;;;;5079670;28;8770;-76
2022/07/16 08:14:37;;;;;;;;;13.00;13.00;29.90;36.00;;;;;;5094105;28;8790;-76
2022/07/16 08:17:03;;;;;;;;;15.00;15.00;29.90;36.00;;;;;;5094703;28;8766;-73
2022/07/16 08:19:30;;;;;;;;;13.67;13.67;30.00;36.30;;;;;;5093314;28;11612;-76
2022/07/16 08:21:56;;;;;;;;;14.33;14.33;29.90;36.20;;;;;;5094525;28;11433;-77
2022/07/16 08:27:07;;;;;;;;;14.67;13.67;30.00;36.50;;;;;;5094515;28;11401;-76
2022/07/16 08:29:33;;;;;;;;;12.33;12.33;30.00;36.00;;;;;;5087272;28;11601;-74
2022/07/16 08:31:59;;;;;;;;;14.33;13.33;30.10;35.90;;;;;;5076083;28;11453;-74
2022/07/16 08:34:25;;;;;;;;;14.33;14.33;30.10;35.70;;;;;;5074183;28;8770;-76
2022/07/16 08:36:52;;;;;;;;;13.00;13.00;30.10;35.20;;;;;;5063015;28;8782;-78
2022/07/16 08:39:19;;;;;;;;;14.00;14.00;30.10;35.20;;;;;;5082468;28;9526;-77
2022/07/16 08:41:45;;;;;;;;;15.00;15.00;30.00;35.10;;;;;;5085480;28;11528;-78
2022/07/16 08:44:12;;;;;;;;;13.67;13.67;30.00;35.20;;;;;;5085824;28;11444;-73
2022/07/16 08:46:38;;;;;;;;;11.75;11.75;30.00;35.10;;;;;;5080468;28;11550;-72
2022/07/16 08:49:04;;;;;;;;;10.25;10.00;30.00;35.10;;;;;;5074303;28;12163;-72
2022/07/16 08:51:35;;;;;;;;;14.00;14.00;29.90;35.30;;;;;;5074036;28;8746;-72
2022/07/16 08:54:12;;;;;;;;;15.00;15.00;29.90;35.50;;;;;;5073841;28;11449;-73
2022/07/16 08:56:38;;;;;;;;;16.00;16.00;29.90;35.60;;;;;;5082739;28;11414;-72
2022/07/16 08:59:07;;;;;;;;;14.67;14.67;29.80;35.50;;;;;;5093421;28;11436;-72
2022/07/16 09:01:33;;;;;;;;;15.67;15.67;29.80;35.70;;;;;;5094208;28;8772;-71
2022/07/16 09:04:00;;;;;;;;;16.00;15.00;29.80;35.90;;;;;;5094380;28;11416;-72
2022/07/16 09:06:27;;;;;;;;;15.00;15.00;29.80;36.10;;;;;;5089609;28;8776;-73
2022/07/16 09:08:53;;;;;;;;;12.67;12.67;29.80;36.20;;;;;;5082591;28;11593;-72
2022/07/16 09:11:22;;;;;;;;;11.00;11.00;29.80;36.10;;;;;;5082962;28;11568;-73
2022/07/16 09:14:07;;;;;;;;;11.33;11.33;29.90;36.30;;;;;;5081990;28;11510;-72
2022/07/16 09:16:47;;;;;;;;;11.50;11.50;30.00;36.40;;;;;;5073898;28;11561;-73
2022/07/16 09:19:27;;;;;;;;;10.00;10.00;30.10;36.00;;;;;;5073844;28;11473;-73
2022/07/16 09:22:11;;;;;;;;;9.00;9.00;30.20;35.40;;;;;;5076579;28;11526;-72
2022/07/16 09:24:41;;;;;;;;;12.00;12.00;30.20;35.10;;;;;;5094371;28;11343;-72
2022/07/16 09:27:13;;;;;;;;;11.33;11.33;30.20;35.50;;;;;;5092003;28;11439;-72
2022/07/16 09:29:54;;;;;;;;;10.50;10.50;30.30;35.60;;;;;;5075159;28;12083;-72
2022/07/16 09:32:39;;;;;;;;;9.50;9.50;30.30;35.60;;;;;;5096308;28;12125;-72
2022/07/16 09:35:16;;;;;;;;;30.33;25.67;30.30;35.20;;;;;;5091795;28;12149;-74
2022/07/16 09:37:54;;;;;;;;;17.33;17.33;30.60;34.90;;;;;;5095436;28;8767;-73
2022/07/16 09:40:43;;;;;;;;;14.00;13.33;31.20;33.90;;;;;;5096621;28;9520;-71
2022/07/16 09:43:15;;;;;;;;;13.67;13.67;31.60;33.10;;;;;;5093787;28;11410;-69
2022/07/16 09:45:47;;;;;;;;;14.75;13.75;32.00;32.20;;;;;;5096387;28;11418;-69
2022/07/16 09:48:21;;;;;;;;;27.00;21.67;32.30;31.60;;;;;;5096152;28;11461;-70
2022/07/16 09:50:47;;;;;;;;;14.25;14.25;32.40;31.30;;;;;;5093331;28;8796;-68
2022/07/16 09:53:20;;;;;;;;;15.67;15.67;32.50;31.10;;;;;;5088440;28;11460;-71
2022/07/16 09:55:56;;;;;;;;;12.50;12.50;32.80;95.20;;;;;;5093618;28;11397;-67
2022/07/16 09:58:22;;;;;;;;;14.33;14.00;30.50;40.40;;;;;;5093812;28;12273;-66
2022/07/16 10:00:48;;;;;;;;;12.33;12.33;30.60;37.10;;;;;;5094405;28;11402;-74
2022/07/16 10:03:14;;;;;;;;;12.67;12.67;30.70;37.10;;;;;;5090973;28;8814;-74
2022/07/16 10:05:41;;;;;;;;;13.33;13.33;30.80;37.50;;;;;;5094022;28;11415;-74
2022/07/16 10:08:07;;;;;;;;;6.00;6.00;30.90;37.10;;;;;;5093223;28;11429;-73
2022/07/16 10:10:33;;;;;;;;;14.75;14.25;30.90;36.40;;;;;;5092762;28;11445;-76
2022/07/16 10:12:59;;;;;;;;;13.00;13.00;31.00;35.30;;;;;;5094960;28;8749;-73
2022/07/16 10:15:26;;;;;;;;;13.25;13.25;31.30;35.30;;;;;;5093779;28;8794;-74
2022/07/16 10:17:52;;;;;;;;;10.00;10.00;32.20;34.60;;;;;;5090062;28;11598;-75
2022/07/16 10:20:20;;;;;;;;;12.50;12.50;32.20;33.80;;;;;;5092931;28;11534;-71
2022/07/16 10:22:49;;;;;;;;;12.50;12.50;32.10;34.10;;;;;;5091082;28;11479;-73
2022/07/16 10:25:15;;;;;;;;;10.25;10.25;31.90;34.10;;;;;;5091427;28;12075;-75
2022/07/16 10:27:42;;;;;;;;;10.75;10.75;31.20;35.00;;;;;;5075586;28;11466;-75
2022/07/16 10:30:18;;;;;;;;;11.25;10.25;30.60;36.40;;;;;;5076237;28;8793;-74
2022/07/16 10:32:59;;;;;;;;;12.25;10.50;30.90;36.00;;;;;;5090436;28;11530;-70
2022/07/16 10:35:32;;;;;;;;;17.33;17.33;31.00;35.10;;;;;;5078408;28;11428;-71
2022/07/16 10:38:20;;;;;;;;;19.00;15.75;31.30;35.50;;;;;;5096280;28;11531;-71
2022/07/16 10:41:03;;;;;;;;;15.50;15.00;31.40;35.10;;;;;;5095687;28;11422;-68
2022/07/16 10:43:29;;;;;;;;;13.25;12.00;31.60;34.00;;;;;;5095990;28;11500;-73
2022/07/16 10:46:00;;;;;;;;;9.75;9.50;31.50;34.90;;;;;;5092905;28;11439;-71
2022/07/16 10:48:49;;;;;;;;;11.00;9.25;31.00;34.70;;;;;;5096187;28;11460;-74
2022/07/16 10:51:16;;;;;;;;;8.00;8.00;30.40;35.30;;;;;;5042015;28;11556;-71
2022/07/16 10:53:57;;;;;;;;;11.25;11.25;30.80;35.00;;;;;;5075918;28;11587;-73
2022/07/16 10:56:43;;;;;;;;;10.00;9.00;30.70;35.50;;;;;;5086780;28;11516;-74
2022/07/16 10:59:11;;;;;;;;;9.75;9.75;30.90;35.80;;;;;;5076730;28;11561;-74
2022/07/16 11:01:39;;;;;;;;;8.50;8.50;31.00;35.60;;;;;;5093954;28;11453;-74
2022/07/16 11:04:09;;;;;;;;;11.00;11.00;31.40;34.70;;;;;;5095632;28;11579;-74
2022/07/16 11:06:37;;;;;;;;;7.50;7.50;31.50;34.10;;;;;;5075370;28;11537;-69
2022/07/16 11:09:05;;;;;;;;;6.00;6.00;32.00;33.00;;;;;;5082636;28;11476;-70
2022/07/16 11:11:39;;;;;;;;;8.25;8.25;32.20;32.10;;;;;;5088037;28;11373;-71
2022/07/16 11:14:06;;;;;;;;;7.00;7.00;32.00;33.00;;;;;;5094426;28;11414;-71
2022/07/16 11:16:32;;;;;;;;;5.25;5.25;31.70;33.50;;;;;;5095103;28;11450;-70
2022/07/16 11:19:02;;;;;;;;;7.00;7.00;32.40;32.50;;;;;;5093105;28;11497;-70
2022/07/16 11:21:29;;;;;;;;;7.25;7.25;32.20;32.60;;;;;;5089038;28;11508;-72
2022/07/16 11:24:00;;;;;;;;;5.75;5.75;32.10;32.80;;;;;;5090261;28;11394;-72
2022/07/16 11:26:28;;;;;;;;;9.00;8.00;31.70;33.20;;;;;;5093763;28;11462;-72
2022/07/16 11:28:53;;;;;;;;;8.00;8.00;32.40;32.00;;;;;;5094374;28;11509;-71
2022/07/16 11:31:37;;;;;;;;;7.00;7.00;32.90;30.70;;;;;;5088094;28;11397;-71
2022/07/16 11:34:06;;;;;;;;;8.00;8.00;32.00;31.80;;;;;;5091726;28;8792;-68
2022/07/16 11:36:35;;;;;;;;;7.00;7.00;32.30;31.60;;;;;;5087598;28;11398;-71
2022/07/16 11:39:04;;;;;;;;;8.00;7.25;32.10;31.70;;;;;;5070625;28;11409;-72
2022/07/16 11:41:34;;;;;;;;;6.25;6.00;32.60;30.80;;;;;;5086767;28;11995;-72
2022/07/16 11:44:17;;;;;;;;;8.50;8.50;33.30;29.20;;;;;;5092639;28;11492;-70
2022/07/16 11:46:49;;;;;;;;;6.00;6.00;34.40;29.20;;;;;;5094975;28;11421;-71
2022/07/16 11:49:33;;;;;;;;;7.00;7.00;34.90;28.00;;;;;;5095242;28;11413;-72
2022/07/16 11:52:02;;;;;;;;;8.00;8.00;34.00;29.00;;;;;;5092880;28;11384;-71
2022/07/16 11:54:29;;;;;;;;;8.75;8.75;33.70;29.20;;;;;;5089746;28;11398;-71
2022/07/16 11:56:56;;;;;;;;;8.50;8.50;33.60;30.00;;;;;;5093788;28;11389;-70
2022/07/16 11:59:28;;;;;;;;;7.50;7.50;33.70;29.30;;;;;;5093900;28;11473;-71
2022/07/16 12:02:13;;;;;;;;;8.75;8.75;34.00;29.50;;;;;;5093472;28;11394;-75
2022/07/16 12:04:41;;;;;;;;;10.00;10.00;33.70;29.90;;;;;;5076451;28;11398;-75
2022/07/16 12:07:12;;;;;;;;;10.50;9.50;33.90;29.80;;;;;;5079441;28;11427;-75
2022/07/16 12:09:47;;;;;;;;;9.00;7.25;34.70;29.20;;;;;;5085605;28;11424;-76
2022/07/16 12:12:24;;;;;;;;;8.00;8.00;34.50;28.80;;;;;;5094911;28;11378;-76
2022/07/16 12:14:53;;;;;;;;;7.25;7.25;35.10;27.60;;;;;;5061495;28;11441;-70
2022/07/16 12:17:38;;;;;;;;;9.00;9.00;35.40;28.10;;;;;;5082731;28;12080;-69
2022/07/16 12:20:12;;;;;;;;;7.00;7.00;35.10;28.00;;;;;;5093100;28;11426;-69
2022/07/16 12:22:53;;;;;;;;;6.75;6.75;34.40;27.50;;;;;;5092975;28;11404;-69
2022/07/16 12:25:35;;;;;;;;;6.50;6.50;33.90;28.20;;;;;;5089003;28;11356;-68
2022/07/16 12:28:11;;;;;;;;;7.00;7.00;34.00;27.70;;;;;;5089729;28;11469;-73
2022/07/16 12:30:42;;;;;;;;;6.00;6.00;35.20;27.00;;;;;;5092164;28;11424;-73
2022/07/16 12:33:23;;;;;;;;;7.00;7.00;35.60;26.50;;;;;;5093123;28;11975;-72
2022/07/16 12:35:58;;;;;;;;;8.00;8.00;35.70;27.50;;;;;;5091177;28;11446;-73
2022/07/16 12:38:50;;;;;;;;;9.00;9.00;34.70;28.60;;;;;;5090129;28;11391;-71
2022/07/16 12:41:18;;;;;;;;;7.50;7.50;34.50;28.80;;;;;;5088773;28;11412;-71
2022/07/16 12:43:45;;;;;;;;;11.50;11.50;34.10;29.20;;;;;;5085976;28;11429;-74
2022/07/16 12:46:11;;;;;;;;;9.00;9.00;34.40;29.40;;;;;;5092771;28;12038;-73
2022/07/16 12:48:50;;;;;;;;;7.00;7.00;34.70;28.90;;;;;;5093061;28;11410;-71